createdAt,value
2018-07-30T00:01:01.658Z,21.20
2018-07-30T00:06:00.128Z,21.10
2018-07-30T00:08:29.048Z,21.20
2018-07-30T00:13:26.489Z,21.20
2018-07-30T00:15:55.370Z,21.20
2018-07-30T00:18:24.333Z,21.20
2018-07-30T00:20:53.365Z,21.30
2018-07-30T00:23:22.282Z,21.40
2018-07-30T00:25:51.156Z,21.40
2018-07-30T00:28:20.057Z,21.20
2018-07-30T00:30:48.900Z,21.20
2018-07-30T00:33:17.780Z,21.30
2018-07-30T00:35:46.636Z,21.20
2018-07-30T00:40:43.949Z,21.10
2018-07-30T00:43:12.791Z,21.20
2018-07-30T00:48:10.194Z,21.20
2018-07-30T00:50:39.116Z,21.20
2018-07-30T00:53:07.998Z,21.20
2018-07-30T00:55:36.930Z,21.10
2018-07-30T00:58:05.909Z,21.20
2018-07-30T01:00:34.878Z,21.20
2018-07-30T01:03:03.821Z,21.20
2018-07-30T01:05:32.725Z,21.20
2018-07-30T01:08:01.580Z,21.20
2018-07-30T01:12:59.225Z,21.00
2018-07-30T01:15:28.059Z,21.00
2018-07-30T01:20:25.609Z,20.90
2018-07-30T01:22:54.780Z,20.90
2018-07-30T01:25:23.732Z,20.90
2018-07-30T01:27:55.901Z,20.90
2018-07-30T01:30:24.825Z,20.90
2018-07-30T01:32:53.666Z,20.90
2018-07-30T01:37:51.200Z,20.70
2018-07-30T01:40:20.132Z,20.70
2018-07-30T01:45:17.509Z,20.50
2018-07-30T01:50:14.880Z,20.60
2018-07-30T01:55:12.291Z,20.50
2018-07-30T01:57:41.154Z,20.40
2018-07-30T02:00:10.150Z,20.30
2018-07-30T02:02:44.154Z,20.30
2018-07-30T02:05:13.100Z,20.30
2018-07-30T02:07:42.856Z,20.30
2018-07-30T02:10:12.420Z,20.30
2018-07-30T02:12:42.220Z,20.30
2018-07-30T02:15:11.562Z,20.20
2018-07-30T02:20:09.330Z,20.20
2018-07-30T02:25:07.780Z,20.40
2018-07-30T02:27:36.638Z,20.40
2018-07-30T02:30:07.042Z,20.40
2018-07-30T02:35:05.039Z,20.40
2018-07-30T02:37:33.978Z,20.40
2018-07-30T02:40:02.915Z,20.40
2018-07-30T02:45:00.296Z,20.30
2018-07-30T02:47:35.887Z,20.30
2018-07-30T02:50:05.998Z,20.30
2018-07-30T02:52:34.929Z,20.40
2018-07-30T02:55:03.913Z,20.40
2018-07-30T02:57:32.813Z,20.40
2018-07-30T03:00:01.803Z,20.50
2018-07-30T03:02:30.809Z,20.50
2018-07-30T03:07:28.145Z,20.50
2018-07-30T03:09:57.066Z,20.40
2018-07-30T03:14:54.421Z,20.50
2018-07-30T03:17:23.360Z,20.40
2018-07-30T03:19:52.268Z,20.20
2018-07-30T03:22:21.157Z,20.10
2018-07-30T03:24:49.999Z,19.90
2018-07-30T03:27:18.973Z,19.80
2018-07-30T03:29:47.844Z,19.80
2018-07-30T03:32:16.730Z,19.90
2018-07-30T03:34:46.612Z,19.90
2018-07-30T03:37:15.828Z,19.90
2018-07-30T03:39:44.681Z,19.90
2018-07-30T03:42:13.505Z,19.90
2018-07-30T03:44:42.432Z,19.90
2018-07-30T03:47:11.341Z,19.90
2018-07-30T03:52:08.701Z,19.80
2018-07-30T03:54:37.565Z,19.70
2018-07-30T03:57:06.430Z,19.60
2018-07-30T03:59:35.297Z,19.60
2018-07-30T04:02:04.195Z,19.60
2018-07-30T04:04:33.101Z,19.60
2018-07-30T04:07:02.001Z,19.70
2018-07-30T04:09:30.922Z,19.80
2018-07-30T04:11:59.814Z,19.90
2018-07-30T04:14:28.687Z,19.90
2018-07-30T04:16:57.960Z,19.90
2018-07-30T04:19:26.808Z,20.00
2018-07-30T04:24:25.567Z,19.90
2018-07-30T04:26:54.470Z,19.90
2018-07-30T04:29:23.388Z,19.90
2018-07-30T04:34:20.653Z,19.70
2018-07-30T04:36:49.622Z,19.70
2018-07-30T04:39:18.499Z,19.70
2018-07-30T04:41:47.413Z,19.70
2018-07-30T04:44:16.362Z,19.70
2018-07-30T04:46:45.270Z,19.60
2018-07-30T04:49:14.225Z,19.60
2018-07-30T04:51:43.063Z,19.60
2018-07-30T04:54:11.959Z,19.70
2018-07-30T04:56:40.783Z,19.70
2018-07-30T04:59:09.801Z,19.60
2018-07-30T05:01:38.961Z,19.50
2018-07-30T05:06:36.348Z,19.40
2018-07-30T05:09:07.606Z,19.40
2018-07-30T05:11:36.817Z,19.40
2018-07-30T05:14:05.693Z,19.40
2018-07-30T05:16:34.612Z,19.40
2018-07-30T05:19:03.454Z,19.30
2018-07-30T05:21:32.326Z,19.30
2018-07-30T05:26:29.760Z,19.30
2018-07-30T05:28:58.663Z,19.30
2018-07-30T05:31:27.567Z,19.20
2018-07-30T05:33:56.461Z,19.10
2018-07-30T05:36:25.441Z,19.10
2018-07-30T05:38:54.559Z,19.10
2018-07-30T05:43:51.840Z,19.30
2018-07-30T05:46:20.991Z,19.30
2018-07-30T05:48:49.921Z,19.40
2018-07-30T05:56:15.739Z,19.60
2018-07-30T05:58:46.391Z,19.70
2018-07-30T06:01:15.349Z,19.80
2018-07-30T06:03:44.212Z,19.90
2018-07-30T06:06:13.150Z,19.90
2018-07-30T06:08:42.091Z,20.00
2018-07-30T06:11:11.009Z,20.10
2018-07-30T06:13:39.911Z,20.10
2018-07-30T06:16:08.805Z,20.20
2018-07-30T06:18:37.667Z,20.20
2018-07-30T06:21:06.748Z,20.20
2018-07-30T06:23:35.633Z,20.20
2018-07-30T06:26:05.242Z,20.20
2018-07-30T06:28:34.184Z,20.20
2018-07-30T06:31:03.072Z,20.20
2018-07-30T06:33:31.949Z,20.30
2018-07-30T06:36:00.823Z,20.40
2018-07-30T06:38:29.765Z,20.40
2018-07-30T06:40:58.619Z,20.50
2018-07-30T06:43:27.510Z,20.60
2018-07-30T06:45:56.325Z,20.70
2018-07-30T06:48:25.162Z,20.80
2018-07-30T06:50:54.137Z,20.90
2018-07-30T06:53:23.071Z,21.00
2018-07-30T06:55:51.964Z,21.10
2018-07-30T06:58:20.851Z,21.10
2018-07-30T07:00:49.820Z,21.20
2018-07-30T07:03:18.792Z,21.30
2018-07-30T07:05:47.614Z,21.30
2018-07-30T07:08:16.465Z,21.40
2018-07-30T07:10:45.398Z,21.50
2018-07-30T07:13:14.451Z,21.60
2018-07-30T07:15:43.370Z,21.60
2018-07-30T07:18:12.292Z,21.70
2018-07-30T07:20:41.176Z,21.80
2018-07-30T07:23:10.159Z,21.90
2018-07-30T07:25:39.060Z,21.90
2018-07-30T07:28:08.106Z,21.90
2018-07-30T07:30:37.014Z,21.90
2018-07-30T07:33:06.150Z,22.00
2018-07-30T07:35:35.043Z,22.10
2018-07-30T07:38:04.061Z,22.20
2018-07-30T07:40:32.989Z,22.30
2018-07-30T07:43:01.910Z,22.30
2018-07-30T07:45:30.851Z,22.50
2018-07-30T07:47:59.729Z,22.50
2018-07-30T07:50:31.004Z,22.70
2018-07-30T07:52:59.922Z,22.70
2018-07-30T07:55:28.797Z,22.80
2018-07-30T07:57:58.604Z,22.90
2018-07-30T08:00:27.584Z,22.90
2018-07-30T08:02:56.510Z,23.00
2018-07-30T08:05:25.491Z,23.10
2018-07-30T08:07:54.329Z,23.20
2018-07-30T08:10:23.299Z,23.30
2018-07-30T08:15:20.711Z,23.50
2018-07-30T08:17:49.651Z,23.50
2018-07-30T08:20:18.582Z,23.60
2018-07-30T08:22:47.549Z,23.70
2018-07-30T08:27:44.942Z,23.90
2018-07-30T08:30:13.938Z,24.00
2018-07-30T08:32:43.149Z,24.10
2018-07-30T08:35:12.110Z,24.20
2018-07-30T08:40:10.053Z,24.30
2018-07-30T08:42:38.952Z,24.40
2018-07-30T08:45:07.979Z,24.40
2018-07-30T08:47:41.713Z,24.50
2018-07-30T08:50:10.820Z,24.60
2018-07-30T08:52:42.046Z,24.70
2018-07-30T08:55:11.041Z,24.70
2018-07-30T08:57:40.087Z,24.80
2018-07-30T09:00:09.871Z,24.90
2018-07-30T09:02:39.414Z,25.00
2018-07-30T09:07:37.571Z,25.10
2018-07-30T09:10:07.061Z,25.20
2018-07-30T09:12:36.232Z,25.30
2018-07-30T09:15:05.373Z,25.30
2018-07-30T09:17:34.278Z,25.40
2018-07-30T09:20:03.173Z,25.50
2018-07-30T09:22:32.043Z,25.60
2018-07-30T09:25:00.947Z,25.70
2018-07-30T09:27:29.750Z,25.80
2018-07-30T09:32:27.110Z,26.00
2018-07-30T09:34:55.921Z,26.10
2018-07-30T09:37:24.806Z,26.20
2018-07-30T09:42:22.049Z,26.50
2018-07-30T09:44:50.914Z,26.60
2018-07-30T09:47:20.165Z,26.70
2018-07-30T09:49:48.999Z,26.80
2018-07-30T09:52:17.877Z,26.90
2018-07-30T09:54:46.818Z,27.10
2018-07-30T09:57:15.660Z,27.10
2018-07-30T09:59:44.461Z,27.30
2018-07-30T10:02:13.313Z,27.20
2018-07-30T10:04:44.482Z,27.20
2018-07-30T10:07:14.193Z,27.20
2018-07-30T10:09:43.230Z,27.20
2018-07-30T10:14:40.619Z,27.30
2018-07-30T10:17:09.559Z,27.30
2018-07-30T10:19:38.424Z,27.30
2018-07-30T10:22:07.322Z,27.40
2018-07-30T10:24:36.262Z,27.50
2018-07-30T10:27:05.162Z,27.60
2018-07-30T10:29:34.016Z,27.70
2018-07-30T10:32:02.924Z,27.90
2018-07-30T10:34:31.827Z,28.00
2018-07-30T10:37:00.650Z,28.10
2018-07-30T10:39:29.481Z,28.20
2018-07-30T10:41:58.330Z,28.40
2018-07-30T10:44:27.233Z,28.50
2018-07-30T10:46:56.120Z,28.60
2018-07-30T10:49:24.991Z,28.70
2018-07-30T10:51:53.979Z,28.80
2018-07-30T10:54:22.861Z,28.90
2018-07-30T10:56:51.780Z,29.00
2018-07-30T10:59:20.634Z,29.20
2018-07-30T11:01:50.534Z,29.30
2018-07-30T11:06:47.805Z,29.50
2018-07-30T11:11:45.471Z,29.70
2018-07-30T11:14:14.315Z,29.80
2018-07-30T11:16:43.152Z,30.00
2018-07-30T11:19:11.971Z,30.20
2018-07-30T11:21:40.978Z,30.20
2018-07-30T11:26:38.381Z,30.30
2018-07-30T11:29:07.252Z,30.40
2018-07-30T11:31:36.108Z,30.50
2018-07-30T11:34:05.031Z,30.60
2018-07-30T11:36:33.935Z,30.80
2018-07-30T11:39:02.805Z,30.90
2018-07-30T11:41:31.686Z,31.00
2018-07-30T11:44:00.545Z,31.20
2018-07-30T11:51:26.376Z,31.60
2018-07-30T11:53:55.253Z,31.70
2018-07-30T11:56:24.141Z,31.80
2018-07-30T11:58:53.065Z,31.90
2018-07-30T12:03:50.479Z,32.10
2018-07-30T12:06:19.358Z,32.20
2018-07-30T12:08:48.171Z,32.20
2018-07-30T12:11:17.028Z,32.10
2018-07-30T12:13:45.957Z,32.10
2018-07-30T12:16:14.781Z,32.00
2018-07-30T12:21:12.095Z,32.00
2018-07-30T12:23:41.029Z,32.10
2018-07-30T12:26:09.902Z,32.20
2018-07-30T12:28:38.827Z,32.50
2018-07-30T12:36:05.121Z,32.90
2018-07-30T12:38:34.005Z,33.00
2018-07-30T12:41:02.835Z,33.10
2018-07-30T12:43:31.710Z,33.20
2018-07-30T12:46:00.574Z,33.20
2018-07-30T12:50:58.771Z,33.10
2018-07-30T12:53:27.671Z,33.30
2018-07-30T12:55:56.550Z,33.30
2018-07-30T12:58:25.390Z,33.40
2018-07-30T13:00:54.254Z,33.50
2018-07-30T13:03:23.186Z,33.60
2018-07-30T13:05:52.116Z,33.70
2018-07-30T13:08:21.047Z,33.80
2018-07-30T13:13:18.341Z,34.10
2018-07-30T13:15:47.202Z,34.20
2018-07-30T13:18:16.061Z,34.30
2018-07-30T13:20:44.941Z,34.40
2018-07-30T13:23:13.810Z,34.50
2018-07-30T13:25:42.740Z,34.60
2018-07-30T13:28:11.643Z,34.60
2018-07-30T13:30:40.571Z,34.70
2018-07-30T13:33:09.448Z,34.80
2018-07-30T13:38:07.278Z,34.90
2018-07-30T13:40:36.452Z,34.90
2018-07-30T13:43:05.370Z,34.80
2018-07-30T13:45:34.331Z,34.80
2018-07-30T13:48:03.281Z,34.80
2018-07-30T13:50:32.183Z,34.70
2018-07-30T13:55:31.014Z,34.50
2018-07-30T13:58:00.668Z,34.60
2018-07-30T14:00:30.316Z,34.80
2018-07-30T14:03:04.221Z,34.90
2018-07-30T14:05:33.421Z,35.00
2018-07-30T14:08:02.452Z,35.00
2018-07-30T14:10:31.431Z,35.00
2018-07-30T14:13:00.321Z,35.10
2018-07-30T14:15:29.306Z,35.20
2018-07-30T14:17:58.953Z,35.20
2018-07-30T14:20:28.655Z,35.30
2018-07-30T14:22:59.511Z,35.40
2018-07-30T14:25:28.840Z,35.40
2018-07-30T14:27:57.731Z,35.40
2018-07-30T14:30:26.592Z,35.40
2018-07-30T14:32:55.510Z,35.40
2018-07-30T14:35:25.206Z,35.40
2018-07-30T14:37:54.027Z,35.50
2018-07-30T14:40:23.011Z,35.50
2018-07-30T14:42:51.882Z,35.60
2018-07-30T14:47:49.303Z,35.60
2018-07-30T14:50:18.204Z,35.60
2018-07-30T14:52:47.085Z,35.60
2018-07-30T14:55:15.995Z,35.70
2018-07-30T14:57:44.869Z,35.70
2018-07-30T15:00:13.838Z,35.80
2018-07-30T15:02:44.660Z,35.80
2018-07-30T15:05:18.143Z,35.80
2018-07-30T15:07:47.087Z,35.80
2018-07-30T15:10:16.024Z,35.80
2018-07-30T15:15:13.590Z,35.90
2018-07-30T15:20:11.021Z,35.80
2018-07-30T15:22:40.566Z,35.80
2018-07-30T15:25:09.601Z,35.90
2018-07-30T15:27:38.539Z,35.80
2018-07-30T15:30:07.871Z,35.70
2018-07-30T15:32:36.861Z,35.80
2018-07-30T15:35:05.802Z,35.80
2018-07-30T15:37:35.001Z,35.80
2018-07-30T15:40:03.944Z,35.90
2018-07-30T15:42:32.977Z,35.90
2018-07-30T15:45:02.195Z,35.90
2018-07-30T15:47:31.118Z,36.00
2018-07-30T15:50:00.003Z,36.00
2018-07-30T15:54:57.555Z,36.00
2018-07-30T15:57:26.430Z,35.90
2018-07-30T15:59:55.325Z,35.90
2018-07-30T16:02:24.210Z,35.90
2018-07-30T16:04:53.028Z,35.90
2018-07-30T16:07:21.922Z,35.80
2018-07-30T16:09:50.800Z,35.70
2018-07-30T16:12:19.661Z,35.70
2018-07-30T16:14:48.553Z,35.70
2018-07-30T16:17:17.414Z,35.70
2018-07-30T16:19:46.358Z,35.70
2018-07-30T16:22:15.230Z,35.70
2018-07-30T16:24:45.318Z,35.70
2018-07-30T16:27:14.650Z,35.70
2018-07-30T16:29:43.527Z,35.80
2018-07-30T16:32:12.422Z,35.70
2018-07-30T16:34:41.612Z,35.80
2018-07-30T16:37:10.507Z,35.70
2018-07-30T16:39:39.404Z,35.60
2018-07-30T16:42:08.325Z,35.70
2018-07-30T16:44:37.349Z,35.60
2018-07-30T16:47:06.383Z,35.50
2018-07-30T16:49:35.262Z,35.40
2018-07-30T16:52:04.144Z,35.30
2018-07-30T16:54:33.007Z,35.30
2018-07-30T16:57:01.988Z,35.30
2018-07-30T16:59:30.918Z,35.10
2018-07-30T17:01:59.794Z,35.00
2018-07-30T17:04:28.690Z,34.70
2018-07-30T17:06:57.511Z,34.40
2018-07-30T17:09:26.555Z,34.10
2018-07-30T17:11:55.427Z,33.70
2018-07-30T17:19:21.160Z,33.00
2018-07-30T17:21:50.107Z,32.80
2018-07-30T17:24:18.981Z,32.70
2018-07-30T17:26:48.140Z,32.50
2018-07-30T17:29:17.678Z,32.40
2018-07-30T17:31:46.556Z,32.40
2018-07-30T17:34:15.469Z,32.20
2018-07-30T17:36:44.319Z,32.20
2018-07-30T17:41:44.305Z,31.90
2018-07-30T17:44:13.425Z,31.80
2018-07-30T17:46:42.543Z,31.70
2018-07-30T17:56:43.526Z,31.10
2018-07-30T17:59:12.791Z,31.00
2018-07-30T18:01:43.977Z,30.90
2018-07-30T18:06:41.518Z,30.80
2018-07-30T18:09:11.321Z,30.70
2018-07-30T18:11:42.704Z,30.60
2018-07-30T18:14:11.837Z,30.50
2018-07-30T18:16:40.835Z,30.40
2018-07-30T18:19:09.788Z,30.30
2018-07-30T18:24:07.487Z,30.20
2018-07-30T18:26:36.401Z,30.10
2018-07-30T18:29:05.341Z,30.00
2018-07-30T18:31:34.193Z,30.00
2018-07-30T18:34:03.149Z,29.90
2018-07-30T18:36:32.188Z,29.80
2018-07-30T18:39:01.096Z,29.70
2018-07-30T18:41:29.989Z,29.70
2018-07-30T18:43:58.864Z,29.70
2018-07-30T18:46:27.921Z,29.60
2018-07-30T18:48:56.835Z,29.50
2018-07-30T18:51:25.718Z,29.50
2018-07-30T18:53:54.634Z,29.40
2018-07-30T18:56:23.536Z,29.20
2018-07-30T18:58:52.430Z,29.10
2018-07-30T19:01:21.316Z,29.10
2018-07-30T19:03:50.156Z,29.00
2018-07-30T19:06:19.101Z,29.00
2018-07-30T19:11:16.401Z,29.00
2018-07-30T19:13:45.534Z,28.90
2018-07-30T19:16:14.672Z,28.90
2018-07-30T19:18:43.589Z,28.80
2018-07-30T19:21:12.521Z,28.80
2018-07-30T19:23:41.322Z,28.80
2018-07-30T19:33:35.907Z,28.60
2018-07-30T19:36:05.126Z,28.60
2018-07-30T19:38:34.024Z,28.50
2018-07-30T19:41:03.014Z,28.40
2018-07-30T19:43:31.968Z,28.30
2018-07-30T19:46:00.867Z,28.20
2018-07-30T19:48:29.821Z,28.20
2018-07-30T19:50:58.684Z,28.20
2018-07-30T19:53:27.576Z,28.20
2018-07-30T19:55:56.531Z,28.10
2018-07-30T19:58:25.854Z,28.10
2018-07-30T20:00:54.332Z,28.00
2018-07-30T20:03:23.661Z,28.00
2018-07-30T20:08:21.159Z,28.00
2018-07-30T20:10:50.005Z,28.00
2018-07-30T20:13:18.880Z,27.90
2018-07-30T20:15:47.741Z,27.80
2018-07-30T20:18:16.569Z,27.80
2018-07-30T20:20:45.433Z,27.70
2018-07-30T20:23:14.340Z,27.50
2018-07-30T20:25:43.254Z,27.50
2018-07-30T20:28:12.135Z,27.40
2018-07-30T20:30:41.076Z,27.40
2018-07-30T20:33:10.014Z,27.40
2018-07-30T20:35:38.962Z,27.40
2018-07-30T20:38:07.856Z,27.40
2018-07-30T20:40:36.709Z,27.40
2018-07-30T20:43:05.510Z,27.40
2018-07-30T20:45:34.441Z,27.40
2018-07-30T20:48:03.270Z,27.40
2018-07-30T20:50:32.106Z,27.30
2018-07-30T20:53:01.031Z,27.30
2018-07-30T20:55:29.917Z,27.20
2018-07-30T20:57:58.814Z,27.20
2018-07-30T21:00:28.202Z,27.10
2018-07-30T21:02:57.060Z,27.10
2018-07-30T21:05:30.356Z,26.90
2018-07-30T21:07:59.151Z,26.70
2018-07-30T21:10:28.139Z,26.40
2018-07-30T21:12:57.343Z,26.30
2018-07-30T21:15:28.950Z,26.30
2018-07-30T21:17:57.841Z,26.30
2018-07-30T21:20:26.734Z,26.30
2018-07-30T21:22:56.750Z,26.20
2018-07-30T21:25:25.600Z,26.20
2018-07-30T21:27:54.546Z,26.10
2018-07-30T21:32:51.900Z,26.00
2018-07-30T21:35:20.803Z,25.90
2018-07-30T21:40:18.112Z,25.80
2018-07-30T21:42:46.966Z,25.70
2018-07-30T21:47:44.327Z,25.40
2018-07-30T21:53:00.831Z,25.30
2018-07-30T21:55:30.591Z,25.20
2018-07-30T21:57:59.461Z,25.10
2018-07-30T22:00:28.355Z,25.10
2018-07-30T22:02:57.908Z,25.00
2018-07-30T22:05:26.780Z,25.00
2018-07-30T22:07:55.631Z,24.60
2018-07-30T22:12:54.920Z,24.30
2018-07-30T22:15:24.323Z,24.30
2018-07-30T22:20:21.782Z,24.40
2018-07-30T22:22:50.699Z,24.50
2018-07-30T22:25:19.606Z,24.50
2018-07-30T22:27:48.479Z,24.40
2018-07-30T22:32:45.856Z,24.40
2018-07-30T22:35:14.930Z,24.50
2018-07-30T22:37:43.753Z,24.50
2018-07-30T22:40:12.940Z,24.50
2018-07-30T22:45:10.227Z,24.40
2018-07-30T22:47:39.122Z,24.30
2018-07-30T22:50:08.050Z,24.20
2018-07-30T22:52:36.898Z,24.10
2018-07-30T22:55:06.092Z,24.20
2018-07-30T22:57:34.902Z,24.00
2018-07-30T23:00:04.918Z,23.80
2018-07-30T23:02:33.784Z,23.70
2018-07-30T23:05:02.758Z,23.60
2018-07-30T23:10:00.101Z,23.50
2018-07-30T23:12:28.941Z,23.50
2018-07-30T23:14:57.806Z,23.60
2018-07-30T23:19:55.073Z,23.60
2018-07-30T23:24:52.800Z,23.40
2018-07-30T23:27:21.638Z,23.30
2018-07-30T23:29:50.435Z,23.30
2018-07-30T23:34:47.757Z,23.30
2018-07-30T23:37:16.706Z,23.20
2018-07-30T23:39:45.485Z,23.10
2018-07-30T23:42:14.300Z,23.00
2018-07-30T23:44:43.134Z,22.90
2018-07-30T23:47:12.000Z,22.80
2018-07-30T23:49:40.922Z,22.90
2018-07-30T23:52:09.830Z,22.90
